createdAt,value
2022-12-18T00:01:32.415Z,6.43
2022-12-18T00:03:59.289Z,7.70
2022-12-18T00:06:27.657Z,7.57
2022-12-18T00:08:55.770Z,7.63
2022-12-18T00:11:25.213Z,7.97
2022-12-18T00:13:52.171Z,7.23
2022-12-18T00:16:21.881Z,7.67
2022-12-18T00:18:50.353Z,7.17
2022-12-18T00:21:17.010Z,7.30
2022-12-18T00:23:45.030Z,7.13
2022-12-18T00:26:32.577Z,8.10
2022-12-18T00:29:14.578Z,6.93
2022-12-18T00:31:42.059Z,6.87
2022-12-18T00:34:11.607Z,7.10
2022-12-18T00:36:41.218Z,7.50
2022-12-18T00:39:08.117Z,6.83
2022-12-18T00:41:53.348Z,6.90
2022-12-18T00:44:20.464Z,7.33
2022-12-18T00:46:48.498Z,6.50
2022-12-18T00:49:17.002Z,7.17
2022-12-18T00:51:43.654Z,6.60
2022-12-18T00:54:11.780Z,6.23
2022-12-18T00:56:48.177Z,6.93
2022-12-18T00:59:15.177Z,6.93
2022-12-18T01:01:41.908Z,6.67
2022-12-18T01:04:08.698Z,6.70
2022-12-18T01:06:35.486Z,6.23
2022-12-18T01:09:02.386Z,7.20
2022-12-18T01:11:29.065Z,7.37
2022-12-18T01:13:56.004Z,7.43
2022-12-18T01:16:23.009Z,7.47
2022-12-18T01:18:52.938Z,6.67
2022-12-18T01:21:19.856Z,7.07
2022-12-18T01:23:47.129Z,7.17
2022-12-18T01:26:18.146Z,6.67
2022-12-18T01:28:45.211Z,5.80
2022-12-18T01:31:23.073Z,6.43
2022-12-18T01:33:50.298Z,6.50
2022-12-18T01:36:22.603Z,6.60
2022-12-18T01:38:49.812Z,6.50
2022-12-18T01:41:19.017Z,5.67
2022-12-18T01:43:58.255Z,6.40
2022-12-18T01:46:25.748Z,6.70
2022-12-18T01:48:56.329Z,5.90
2022-12-18T01:51:24.782Z,6.33
2022-12-18T01:53:51.445Z,6.80
2022-12-18T01:56:20.225Z,6.50
2022-12-18T01:59:07.675Z,6.30
2022-12-18T02:01:34.534Z,6.73
2022-12-18T02:04:23.674Z,7.40
2022-12-18T02:07:03.505Z,7.03
2022-12-18T02:09:37.701Z,6.30
2022-12-18T02:12:17.230Z,5.90
2022-12-18T02:14:57.157Z,6.30
2022-12-18T02:17:30.247Z,6.80
2022-12-18T02:20:14.846Z,6.10
2022-12-18T02:22:59.692Z,6.00
2022-12-18T02:25:59.031Z,7.37
2022-12-18T02:28:29.761Z,6.90
2022-12-18T02:31:01.016Z,7.40
2022-12-18T02:33:29.986Z,6.37
2022-12-18T02:35:58.033Z,6.40
2022-12-18T02:38:26.501Z,6.60
2022-12-18T02:40:54.676Z,6.67
2022-12-18T02:43:22.246Z,6.70
2022-12-18T02:45:57.605Z,6.70
2022-12-18T02:48:28.860Z,6.00
2022-12-18T02:51:06.505Z,5.87
2022-12-18T02:53:52.210Z,7.30
2022-12-18T02:56:27.565Z,7.00
2022-12-18T02:59:01.278Z,6.43
2022-12-18T03:02:10.939Z,7.23
2022-12-18T03:04:45.682Z,6.93
2022-12-18T03:07:17.698Z,7.23
2022-12-18T03:09:47.137Z,6.23
2022-12-18T03:12:41.675Z,6.27
2022-12-18T03:15:22.744Z,7.10
2022-12-18T03:18:02.936Z,7.00
2022-12-18T03:20:32.778Z,7.20
2022-12-18T03:23:05.355Z,6.83
2022-12-18T03:25:32.172Z,7.17
2022-12-18T03:28:02.228Z,6.70
2022-12-18T03:30:31.071Z,6.87
2022-12-18T03:33:04.739Z,7.27
2022-12-18T03:35:35.543Z,6.83
2022-12-18T03:38:02.475Z,7.60
2022-12-18T03:40:46.614Z,6.80
2022-12-18T03:43:41.229Z,6.00
2022-12-18T03:46:28.191Z,6.33
2022-12-18T03:49:11.025Z,5.97
2022-12-18T03:51:43.675Z,5.90
2022-12-18T03:54:12.246Z,5.93
2022-12-18T03:56:48.396Z,5.67
2022-12-18T03:59:16.322Z,5.83
2022-12-18T04:01:47.636Z,6.57
2022-12-18T04:04:16.597Z,6.20
2022-12-18T04:06:44.825Z,7.30
2022-12-18T04:09:13.137Z,6.57
2022-12-18T04:11:45.301Z,6.07
2022-12-18T04:14:17.676Z,6.00
2022-12-18T04:16:46.211Z,6.83
2022-12-18T04:19:15.814Z,6.47
2022-12-18T04:21:44.385Z,6.13
2022-12-18T04:24:12.678Z,6.53
2022-12-18T04:26:45.347Z,6.87
2022-12-18T04:29:17.926Z,6.17
2022-12-18T04:31:44.529Z,5.83
2022-12-18T04:34:11.439Z,6.17
2022-12-18T04:36:43.865Z,6.37
2022-12-18T04:39:10.664Z,6.90
2022-12-18T04:41:37.411Z,6.63
2022-12-18T04:44:04.926Z,6.90
2022-12-18T04:46:31.552Z,6.13
2022-12-18T04:48:58.148Z,6.40
2022-12-18T04:51:26.633Z,7.10
2022-12-18T04:53:53.989Z,6.20
2022-12-18T04:56:20.900Z,7.77
2022-12-18T04:58:47.508Z,6.33
2022-12-18T05:01:15.792Z,7.40
2022-12-18T05:03:43.006Z,6.80
2022-12-18T05:06:10.575Z,7.30
2022-12-18T05:08:37.290Z,7.40
2022-12-18T05:11:06.717Z,6.50
2022-12-18T05:13:34.073Z,7.40
2022-12-18T05:16:01.190Z,7.10
2022-12-18T05:18:28.150Z,5.10
2022-12-18T05:20:55.175Z,7.80
2022-12-18T05:23:22.967Z,7.23
2022-12-18T05:26:00.895Z,6.50
2022-12-18T05:28:29.056Z,7.60
2022-12-18T05:30:58.334Z,7.37
2022-12-18T05:33:26.967Z,7.60
2022-12-18T05:35:58.281Z,7.00
2022-12-18T05:38:26.353Z,7.60
2022-12-18T05:40:53.522Z,7.23
2022-12-18T05:43:22.633Z,6.93
2022-12-18T05:45:50.294Z,7.43
2022-12-18T05:48:17.494Z,7.87
2022-12-18T05:50:48.429Z,7.50
2022-12-18T05:53:17.898Z,7.20
2022-12-18T05:55:44.759Z,7.43
2022-12-18T05:58:12.648Z,7.50
2022-12-18T06:00:40.958Z,7.17
2022-12-18T06:03:11.668Z,6.67
2022-12-18T06:05:40.288Z,7.80
2022-12-18T06:08:07.081Z,7.37
2022-12-18T06:10:33.834Z,6.50
2022-12-18T06:13:00.789Z,6.67
2022-12-18T06:15:27.337Z,6.93
2022-12-18T06:17:53.961Z,7.50
2022-12-18T06:20:20.920Z,7.73
2022-12-18T06:22:47.532Z,6.50
2022-12-18T06:25:14.134Z,7.17
2022-12-18T06:27:41.228Z,6.30
2022-12-18T06:30:09.599Z,7.60
2022-12-18T06:32:36.196Z,7.03
2022-12-18T06:35:02.883Z,7.13
2022-12-18T06:37:29.430Z,6.90
2022-12-18T06:39:57.499Z,7.20
2022-12-18T06:42:25.093Z,7.20
2022-12-18T06:44:51.753Z,6.23
2022-12-18T06:47:18.966Z,6.33
2022-12-18T06:49:45.566Z,6.93
2022-12-18T06:52:12.155Z,6.00
2022-12-18T06:54:38.883Z,6.20
2022-12-18T06:57:05.486Z,5.77
2022-12-18T06:59:32.071Z,6.30
2022-12-18T07:01:58.700Z,6.00
2022-12-18T07:04:33.015Z,6.67
2022-12-18T07:06:59.666Z,7.10
2022-12-18T07:09:26.247Z,6.80
2022-12-18T07:11:53.506Z,6.00
2022-12-18T07:14:20.301Z,6.73
2022-12-18T07:16:46.976Z,6.40
2022-12-18T07:19:13.631Z,5.47
2022-12-18T07:21:40.300Z,6.50
2022-12-18T07:24:07.298Z,5.87
2022-12-18T07:26:33.881Z,5.80
2022-12-18T07:29:00.491Z,5.80
2022-12-18T07:31:28.162Z,6.23
2022-12-18T07:33:54.987Z,6.03
2022-12-18T07:36:24.418Z,6.50
2022-12-18T07:38:52.491Z,6.00
2022-12-18T07:41:19.782Z,6.17
2022-12-18T07:43:46.640Z,6.80
2022-12-18T07:46:16.687Z,5.60
2022-12-18T07:48:44.319Z,5.23
2022-12-18T07:51:13.453Z,6.17
2022-12-18T07:53:40.297Z,6.07
2022-12-18T07:56:28.101Z,5.80
2022-12-18T07:58:55.952Z,4.90
2022-12-18T08:01:22.717Z,5.50
2022-12-18T08:03:50.071Z,5.20
2022-12-18T08:06:19.134Z,6.20
2022-12-18T08:08:45.796Z,6.17
2022-12-18T08:11:12.594Z,5.60
2022-12-18T08:13:39.545Z,5.60
2022-12-18T08:16:08.633Z,5.60
2022-12-18T08:18:36.627Z,5.27
2022-12-18T08:21:14.127Z,5.50
2022-12-18T08:23:43.227Z,5.40
2022-12-18T08:26:11.918Z,6.40
2022-12-18T08:28:39.025Z,6.00
2022-12-18T08:31:05.935Z,4.20
2022-12-18T08:33:33.440Z,5.50
2022-12-18T08:36:00.341Z,5.53
2022-12-18T08:38:26.940Z,5.63
2022-12-18T08:41:19.590Z,5.10
2022-12-18T08:44:04.777Z,5.40
2022-12-18T08:46:49.631Z,5.23
2022-12-18T08:49:16.245Z,5.50
2022-12-18T08:51:42.838Z,4.83
2022-12-18T08:54:12.492Z,4.90
2022-12-18T08:56:39.111Z,5.07
2022-12-18T08:59:06.068Z,5.83
2022-12-18T09:01:32.783Z,5.57
2022-12-18T09:04:00.262Z,5.00
2022-12-18T09:06:27.449Z,5.97
2022-12-18T09:08:54.151Z,5.27
2022-12-18T09:11:23.551Z,7.10
2022-12-18T09:13:50.591Z,4.93
2022-12-18T09:16:17.735Z,4.73
2022-12-18T09:18:44.482Z,4.97
2022-12-18T09:21:13.432Z,4.67
2022-12-18T09:23:40.198Z,4.97
2022-12-18T09:26:06.887Z,5.27
2022-12-18T09:28:33.535Z,5.77
2022-12-18T09:31:00.496Z,5.70
2022-12-18T09:33:27.087Z,5.77
2022-12-18T09:35:53.677Z,4.90
2022-12-18T09:38:21.084Z,4.50
2022-12-18T09:40:57.177Z,4.77
2022-12-18T09:44:02.388Z,4.40
2022-12-18T09:46:36.354Z,4.60
2022-12-18T09:49:07.202Z,4.90
2022-12-18T09:51:37.479Z,4.63
2022-12-18T09:54:06.865Z,4.37
2022-12-18T09:56:36.956Z,4.07
2022-12-18T09:59:04.944Z,4.13
2022-12-18T10:01:41.466Z,5.00
2022-12-18T10:04:10.319Z,4.40
2022-12-18T10:07:05.751Z,4.50
2022-12-18T10:09:52.204Z,4.47
2022-12-18T10:12:58.253Z,4.00
2022-12-18T10:15:33.747Z,4.73
2022-12-18T10:18:24.897Z,4.80
2022-12-18T10:20:57.936Z,4.73
2022-12-18T10:23:42.486Z,4.27
2022-12-18T10:26:13.859Z,5.40
2022-12-18T10:28:42.945Z,4.80
2022-12-18T10:31:18.958Z,4.47
2022-12-18T10:34:12.073Z,4.40
2022-12-18T10:36:39.298Z,4.00
2022-12-18T10:39:27.240Z,4.70
2022-12-18T10:42:11.652Z,3.90
2022-12-18T10:44:38.259Z,4.60
2022-12-18T10:47:11.677Z,4.60
2022-12-18T10:49:47.636Z,4.73
2022-12-18T10:52:23.030Z,4.37
2022-12-18T10:59:50.410Z,4.33
2022-12-18T11:02:35.459Z,3.27
2022-12-18T11:05:21.328Z,4.73
2022-12-18T11:12:03.318Z,4.77
2022-12-18T11:14:48.446Z,3.90
2022-12-18T11:18:11.275Z,4.03
2022-12-18T11:20:38.109Z,4.23
2022-12-18T11:23:23.960Z,4.40
2022-12-18T11:25:57.263Z,4.03
2022-12-18T11:28:26.648Z,4.40
2022-12-18T11:31:18.571Z,4.20
2022-12-18T11:34:29.739Z,4.80
2022-12-18T11:36:59.057Z,4.17
2022-12-18T11:39:40.535Z,4.33
2022-12-18T11:42:28.251Z,4.30
2022-12-18T11:45:16.344Z,4.67
2022-12-18T11:47:57.854Z,5.10
2022-12-18T11:50:31.057Z,4.87
2022-12-18T11:53:04.237Z,5.40
2022-12-18T11:55:41.685Z,4.67
2022-12-18T11:58:39.067Z,6.23
2022-12-18T12:01:30.657Z,5.60
2022-12-18T12:04:08.330Z,5.60
2022-12-18T12:07:12.339Z,5.30
2022-12-18T12:10:03.168Z,4.97
2022-12-18T12:12:49.193Z,5.57
2022-12-18T12:15:28.703Z,4.70
2022-12-18T12:18:20.297Z,5.70
2022-12-18T12:20:51.793Z,5.90
2022-12-18T12:23:35.016Z,5.50
2022-12-18T12:26:29.316Z,5.53
2022-12-18T12:29:05.489Z,5.80
2022-12-18T12:31:52.959Z,6.23
2022-12-18T12:34:38.443Z,6.23
2022-12-18T12:37:20.940Z,6.83
2022-12-18T12:39:48.637Z,6.20
2022-12-18T12:42:43.050Z,6.40
2022-12-18T12:45:16.791Z,6.23
2022-12-18T12:47:45.029Z,6.20
2022-12-18T12:50:18.045Z,5.83
2022-12-18T12:52:47.532Z,6.13
2022-12-18T12:55:24.261Z,5.67
2022-12-18T12:57:52.266Z,6.23
2022-12-18T13:00:25.202Z,6.00
2022-12-18T13:03:05.998Z,6.13
2022-12-18T13:05:41.618Z,5.83
2022-12-18T13:08:13.551Z,5.63
2022-12-18T13:10:42.189Z,6.10
2022-12-18T13:13:16.500Z,5.73
2022-12-18T13:16:08.853Z,5.43
2022-12-18T13:18:35.721Z,6.17
2022-12-18T13:21:06.564Z,6.27
2022-12-18T13:23:39.834Z,5.00
2022-12-18T13:26:07.402Z,6.40
2022-12-18T13:28:34.152Z,7.00
2022-12-18T13:31:02.077Z,6.00
2022-12-18T13:33:34.777Z,6.20
2022-12-18T13:36:13.679Z,5.77
2022-12-18T13:38:41.495Z,5.80
2022-12-18T13:41:08.526Z,6.30
2022-12-18T13:43:44.972Z,5.20
2022-12-18T13:46:28.241Z,5.63
2022-12-18T13:49:05.533Z,5.20
2022-12-18T13:51:34.758Z,5.27
2022-12-18T13:54:23.568Z,6.03
2022-12-18T13:56:50.353Z,6.47
2022-12-18T13:59:17.014Z,6.20
2022-12-18T14:01:49.933Z,5.57
2022-12-18T14:04:20.959Z,5.07
2022-12-18T14:07:03.456Z,5.10
2022-12-18T14:09:43.902Z,5.70
2022-12-18T14:12:38.322Z,5.00
2022-12-18T14:15:07.617Z,5.30
2022-12-18T14:17:34.748Z,5.43
2022-12-18T14:20:02.002Z,5.23
2022-12-18T14:22:30.543Z,5.90
2022-12-18T14:25:16.907Z,5.37
2022-12-18T14:27:48.925Z,6.17
2022-12-18T14:30:24.917Z,6.83
2022-12-18T14:33:11.215Z,5.80
2022-12-18T14:35:54.719Z,5.00
2022-12-18T14:38:25.841Z,6.40
2022-12-18T14:40:59.355Z,5.60
2022-12-18T14:43:30.092Z,6.10
2022-12-18T14:45:57.443Z,5.30
2022-12-18T14:48:36.409Z,5.50
2022-12-18T14:51:11.896Z,5.70
2022-12-18T14:53:48.968Z,5.00
2022-12-18T14:56:21.112Z,5.60
2022-12-18T14:58:59.220Z,4.63
2022-12-18T15:01:32.127Z,5.67
2022-12-18T15:03:59.822Z,5.50
2022-12-18T15:06:34.442Z,5.57
2022-12-18T15:09:03.981Z,5.33
2022-12-18T15:11:47.156Z,5.00
2022-12-18T15:14:43.101Z,4.93
2022-12-18T15:17:21.868Z,4.57
2022-12-18T15:19:52.610Z,5.23
2022-12-18T15:22:32.187Z,5.10
2022-12-18T15:24:59.548Z,4.80
2022-12-18T15:27:32.563Z,5.40
2022-12-18T15:30:20.386Z,5.10
2022-12-18T15:32:47.880Z,4.90
2022-12-18T15:35:25.344Z,4.30
2022-12-18T15:37:53.259Z,5.10
2022-12-18T15:40:24.942Z,4.80
2022-12-18T15:43:13.703Z,5.10
2022-12-18T15:45:40.479Z,4.97
2022-12-18T15:48:22.082Z,4.50
2022-12-18T15:50:50.016Z,5.43
2022-12-18T15:53:16.636Z,4.93
2022-12-18T15:56:01.829Z,5.60
2022-12-18T15:58:28.561Z,5.10
2022-12-18T16:00:56.876Z,5.57
2022-12-18T16:03:23.559Z,5.40
2022-12-18T16:05:51.181Z,5.20
2022-12-18T16:08:17.835Z,4.93
2022-12-18T16:10:44.492Z,4.90
2022-12-18T16:13:17.490Z,5.47
2022-12-18T16:15:44.214Z,5.00
2022-12-18T16:18:10.970Z,4.83
2022-12-18T16:20:39.376Z,4.93
2022-12-18T16:23:06.000Z,4.97
2022-12-18T16:25:32.650Z,5.80
2022-12-18T16:27:59.300Z,4.83
2022-12-18T16:30:33.055Z,5.00
2022-12-18T16:33:07.640Z,5.30
2022-12-18T16:35:34.970Z,5.50
2022-12-18T16:38:01.620Z,4.83
2022-12-18T16:40:28.584Z,5.30
2022-12-18T16:42:55.311Z,4.73
2022-12-18T16:45:21.951Z,4.80
2022-12-18T16:47:50.962Z,4.70
2022-12-18T16:50:17.699Z,5.10
2022-12-18T16:52:44.356Z,5.50
2022-12-18T16:55:11.148Z,5.53
2022-12-18T16:57:37.894Z,5.47
2022-12-18T17:00:06.201Z,4.93
2022-12-18T17:02:33.600Z,5.57
2022-12-18T17:05:00.564Z,5.47
2022-12-18T17:07:28.230Z,4.87
2022-12-18T17:09:55.288Z,5.97
2022-12-18T17:12:22.779Z,5.47
2022-12-18T17:14:49.476Z,5.00
2022-12-18T17:17:21.504Z,4.00
2022-12-18T17:19:49.774Z,5.13
2022-12-18T17:22:18.037Z,4.90
2022-12-18T17:24:44.702Z,5.07
2022-12-18T17:27:11.587Z,6.07
2022-12-18T17:29:41.300Z,5.63
2022-12-18T17:32:13.390Z,5.43
2022-12-18T17:34:40.737Z,6.60
2022-12-18T17:37:07.655Z,5.47
2022-12-18T17:39:34.427Z,5.67
2022-12-18T17:42:01.354Z,5.70
2022-12-18T17:44:28.093Z,5.60
2022-12-18T17:46:54.838Z,6.07
2022-12-18T17:49:21.684Z,6.17
2022-12-18T17:51:48.795Z,6.20
2022-12-18T17:54:15.531Z,6.37
2022-12-18T17:56:42.200Z,5.63
2022-12-18T17:59:09.560Z,6.07
2022-12-18T18:01:41.071Z,6.40
2022-12-18T18:04:10.644Z,5.70
2022-12-18T18:06:38.987Z,5.73
2022-12-18T18:09:08.634Z,5.23
2022-12-18T18:12:03.056Z,5.97
2022-12-18T18:14:29.850Z,5.40
2022-12-18T18:16:56.440Z,5.93
2022-12-18T18:19:25.583Z,5.63
2022-12-18T18:21:53.869Z,6.33
2022-12-18T18:24:23.510Z,6.20
2022-12-18T18:26:50.428Z,5.87
2022-12-18T18:29:19.316Z,5.93
2022-12-18T18:31:46.143Z,6.10
2022-12-18T18:34:21.364Z,6.40
2022-12-18T18:36:48.084Z,6.20
2022-12-18T18:39:14.983Z,5.80
2022-12-18T18:41:43.840Z,6.20
2022-12-18T18:44:15.142Z,6.60
2022-12-18T18:46:41.701Z,6.90
2022-12-18T18:49:08.487Z,6.43
2022-12-18T18:51:35.570Z,6.50
2022-12-18T18:54:02.255Z,6.70
2022-12-18T18:59:16.033Z,6.60
2022-12-18T19:01:43.131Z,6.87
2022-12-18T19:04:10.258Z,6.90
2022-12-18T19:06:36.858Z,7.27
2022-12-18T19:09:04.967Z,6.93
2022-12-18T19:11:50.264Z,7.20
2022-12-18T19:14:17.016Z,6.63
2022-12-18T19:16:45.456Z,7.30
2022-12-18T19:19:13.033Z,8.37
2022-12-18T19:21:41.027Z,7.63
2022-12-18T19:24:08.056Z,7.43
2022-12-18T19:26:37.508Z,8.20
2022-12-18T19:29:06.405Z,7.50
2022-12-18T19:31:36.492Z,7.80
2022-12-18T19:34:05.381Z,8.60
2022-12-18T19:36:33.052Z,7.80
2022-12-18T19:39:01.519Z,7.90
2022-12-18T19:41:32.863Z,8.70
2022-12-18T19:44:01.115Z,9.10
2022-12-18T19:46:34.611Z,8.70
2022-12-18T19:49:01.223Z,8.20
2022-12-18T19:51:29.140Z,8.10
2022-12-18T19:53:59.323Z,8.97
2022-12-18T19:56:30.318Z,8.70
2022-12-18T19:58:56.950Z,9.00
2022-12-18T20:01:25.250Z,8.63
2022-12-18T20:03:55.340Z,9.80
2022-12-18T20:06:26.648Z,9.40
2022-12-18T20:08:57.973Z,9.20
2022-12-18T20:11:27.117Z,9.40
2022-12-18T20:13:53.763Z,9.60
2022-12-18T20:16:20.655Z,9.70
2022-12-18T20:18:47.806Z,8.60
2022-12-18T20:21:14.881Z,10.13
2022-12-18T20:23:42.120Z,9.83
2022-12-18T20:26:09.181Z,10.20
2022-12-18T20:28:35.958Z,10.10
2022-12-18T20:31:06.576Z,10.27
2022-12-18T20:33:33.273Z,10.50
2022-12-18T20:36:06.042Z,9.20
2022-12-18T20:38:33.865Z,10.47
2022-12-18T20:41:04.829Z,9.80
2022-12-18T20:43:31.448Z,10.10
2022-12-18T20:46:06.219Z,10.50
2022-12-18T20:48:33.239Z,10.47
2022-12-18T20:51:07.626Z,11.23
2022-12-18T20:53:34.591Z,10.50
2022-12-18T20:56:02.227Z,10.17
2022-12-18T20:58:28.889Z,10.80
2022-12-18T21:01:09.514Z,10.50
2022-12-18T21:03:36.929Z,10.23
2022-12-18T21:06:03.915Z,11.00
2022-12-18T21:08:30.741Z,11.13
2022-12-18T21:11:31.571Z,10.40
2022-12-18T21:13:58.466Z,10.50
2022-12-18T21:16:25.219Z,10.40
2022-12-18T21:18:54.535Z,11.23
2022-12-18T21:21:26.597Z,11.27
2022-12-18T21:23:53.963Z,10.70
2022-12-18T21:26:23.300Z,11.30
2022-12-18T21:28:58.417Z,10.80
2022-12-18T21:31:27.016Z,11.37
2022-12-18T21:33:58.340Z,9.60
2022-12-18T21:36:28.702Z,10.90
2022-12-18T21:38:55.732Z,10.37
2022-12-18T21:41:42.275Z,9.90
2022-12-18T21:44:11.667Z,11.13
2022-12-18T21:46:40.569Z,12.50
2022-12-18T21:49:08.935Z,9.00
2022-12-18T21:51:36.176Z,11.90
2022-12-18T21:54:03.522Z,11.63
2022-12-18T21:57:02.385Z,11.20
2022-12-18T21:59:30.159Z,11.47
2022-12-18T22:01:59.370Z,10.63
2022-12-18T22:04:26.775Z,11.47
2022-12-18T22:06:53.616Z,11.80
2022-12-18T22:09:23.660Z,11.70
2022-12-18T22:11:51.118Z,11.50
2022-12-18T22:14:20.665Z,11.60
2022-12-18T22:16:47.845Z,10.20
2022-12-18T22:19:14.978Z,10.90
2022-12-18T22:21:45.876Z,9.80
2022-12-18T22:24:18.631Z,9.80
2022-12-18T22:26:46.420Z,12.13
2022-12-18T22:29:37.808Z,12.07
2022-12-18T22:32:05.834Z,12.47
2022-12-18T22:34:36.415Z,12.10
2022-12-18T22:37:03.535Z,12.47
2022-12-18T22:39:30.204Z,12.10
2022-12-18T22:41:57.878Z,12.33
2022-12-18T22:44:26.265Z,13.53
2022-12-18T22:47:05.381Z,12.37
2022-12-18T22:49:33.484Z,12.00
2022-12-18T22:52:01.735Z,12.20
2022-12-18T22:54:29.475Z,11.10
2022-12-18T22:56:56.042Z,11.80
2022-12-18T22:59:23.503Z,12.60
2022-12-18T23:01:52.913Z,10.70
2022-12-18T23:04:29.996Z,11.80
2022-12-18T23:07:04.859Z,12.20
2022-12-18T23:09:31.744Z,12.67
2022-12-18T23:11:58.438Z,12.93
2022-12-18T23:14:25.037Z,12.77
2022-12-18T23:16:53.004Z,12.70
2022-12-18T23:19:20.423Z,12.67
2022-12-18T23:21:47.166Z,13.13
2022-12-18T23:24:13.834Z,10.83
2022-12-18T23:26:40.669Z,13.23
2022-12-18T23:29:07.513Z,12.33
2022-12-18T23:31:36.715Z,12.50
2022-12-18T23:34:04.492Z,12.40
2022-12-18T23:36:31.841Z,13.60
2022-12-18T23:39:07.002Z,13.50
2022-12-18T23:41:33.605Z,12.40
2022-12-18T23:44:00.740Z,12.73
2022-12-18T23:46:32.287Z,13.63
2022-12-18T23:49:00.645Z,12.00
2022-12-18T23:51:28.333Z,13.17
2022-12-18T23:53:56.769Z,13.50
2022-12-18T23:56:24.448Z,11.90
2022-12-18T23:58:52.632Z,12.83
